createdAt,value
2023-01-19T00:01:39.593Z,6.22
2023-01-19T00:04:07.716Z,6.45
2023-01-19T00:06:37.351Z,6.68
2023-01-19T00:09:05.293Z,6.63
2023-01-19T00:11:33.131Z,7.35
2023-01-19T00:14:01.075Z,7.45
2023-01-19T00:16:29.178Z,7.30
2023-01-19T00:18:57.056Z,7.00
2023-01-19T00:21:25.046Z,7.30
2023-01-19T00:23:54.320Z,7.50
2023-01-19T00:26:23.168Z,7.40
2023-01-19T00:28:51.283Z,6.63
2023-01-19T00:31:21.722Z,7.50
2023-01-19T00:33:51.580Z,7.20
2023-01-19T00:36:20.583Z,7.25
2023-01-19T00:38:48.653Z,7.80
2023-01-19T00:41:18.454Z,7.60
2023-01-19T00:43:45.628Z,7.35
2023-01-19T00:46:13.653Z,7.47
2023-01-19T00:48:41.753Z,7.13
2023-01-19T00:51:09.791Z,7.60
2023-01-19T00:53:37.723Z,7.78
2023-01-19T00:56:06.070Z,10.38
2023-01-19T00:58:35.656Z,10.52
2023-01-19T01:01:04.911Z,10.10
2023-01-19T01:03:33.719Z,9.02
2023-01-19T01:06:03.572Z,12.85
2023-01-19T01:08:31.584Z,12.30
2023-01-19T01:10:59.434Z,12.40
2023-01-19T01:13:28.466Z,8.63
2023-01-19T01:15:58.511Z,12.50
2023-01-19T01:18:26.417Z,14.10
2023-01-19T01:21:01.366Z,9.57
2023-01-19T01:23:29.387Z,10.55
2023-01-19T01:25:57.221Z,11.38
2023-01-19T01:28:25.510Z,9.38
2023-01-19T01:30:55.142Z,10.30
2023-01-19T01:33:41.113Z,14.48
2023-01-19T01:36:10.598Z,14.40
2023-01-19T01:38:39.288Z,8.77
2023-01-19T01:41:07.385Z,9.45
2023-01-19T01:43:46.794Z,13.25
2023-01-19T01:46:17.038Z,14.27
2023-01-19T01:48:52.426Z,12.57
2023-01-19T01:51:25.530Z,11.00
2023-01-19T01:54:01.336Z,11.77
2023-01-19T01:57:02.794Z,10.60
2023-01-19T01:59:39.370Z,10.88
2023-01-19T02:02:28.133Z,11.85
2023-01-19T02:05:04.019Z,12.27
2023-01-19T02:07:57.009Z,9.07
2023-01-19T02:10:42.440Z,12.55
2023-01-19T02:15:55.570Z,9.77
2023-01-19T02:18:25.578Z,9.93
2023-01-19T02:21:01.820Z,8.88
2023-01-19T02:23:50.557Z,10.05
2023-01-19T02:26:21.776Z,8.90
2023-01-19T02:28:54.099Z,8.95
2023-01-19T02:31:22.305Z,11.15
2023-01-19T02:34:04.456Z,12.32
2023-01-19T02:36:36.854Z,10.98
2023-01-19T02:39:09.419Z,11.40
2023-01-19T02:41:45.285Z,11.73
2023-01-19T02:44:16.290Z,10.77
2023-01-19T02:46:44.099Z,8.98
2023-01-19T02:49:14.905Z,8.82
2023-01-19T02:51:45.101Z,7.10
2023-01-19T02:54:31.096Z,6.70
2023-01-19T02:57:27.788Z,7.97
2023-01-19T03:00:09.704Z,8.48
2023-01-19T03:02:47.042Z,7.22
2023-01-19T03:05:30.554Z,8.18
2023-01-19T03:08:07.736Z,8.85
2023-01-19T03:10:46.628Z,9.13
2023-01-19T03:13:24.694Z,7.78
2023-01-19T03:15:56.622Z,7.03
2023-01-19T03:18:28.036Z,7.40
2023-01-19T03:20:58.952Z,7.10
2023-01-19T03:23:31.914Z,7.28
2023-01-19T03:26:02.895Z,6.40
2023-01-19T03:28:31.463Z,6.35
2023-01-19T03:31:04.348Z,6.65
2023-01-19T03:33:35.122Z,5.38
2023-01-19T03:36:08.974Z,5.57
2023-01-19T03:38:39.482Z,5.90
2023-01-19T03:41:15.510Z,6.47
2023-01-19T03:43:45.448Z,6.90
2023-01-19T03:46:17.318Z,6.18
2023-01-19T03:48:46.013Z,6.10
2023-01-19T03:51:14.491Z,6.18
2023-01-19T03:53:43.027Z,6.82
2023-01-19T03:56:19.376Z,6.82
2023-01-19T03:58:47.541Z,7.07
2023-01-19T04:01:16.119Z,7.28
2023-01-19T04:03:44.758Z,6.50
2023-01-19T04:06:12.800Z,7.63
2023-01-19T04:08:44.392Z,8.73
2023-01-19T04:11:13.269Z,11.93
2023-01-19T04:13:42.554Z,9.60
2023-01-19T04:16:12.399Z,10.02
2023-01-19T04:18:42.149Z,9.27
2023-01-19T04:21:10.517Z,8.40
2023-01-19T04:23:38.368Z,7.45
2023-01-19T04:26:08.196Z,6.97
2023-01-19T04:28:37.379Z,6.45
2023-01-19T04:31:07.641Z,8.32
2023-01-19T04:33:35.684Z,6.53
2023-01-19T04:36:04.257Z,7.60
2023-01-19T04:38:32.148Z,8.43
2023-01-19T04:41:00.015Z,8.20
2023-01-19T04:43:27.930Z,7.97
2023-01-19T04:45:56.184Z,6.78
2023-01-19T04:48:25.493Z,6.95
2023-01-19T04:50:53.945Z,6.55
2023-01-19T04:53:22.200Z,6.60
2023-01-19T04:55:54.535Z,5.80
2023-01-19T04:58:22.430Z,6.88
2023-01-19T05:01:15.875Z,7.00
2023-01-19T05:03:45.317Z,6.25
2023-01-19T05:06:13.173Z,6.85
2023-01-19T05:08:40.961Z,6.85
2023-01-19T05:11:08.801Z,7.32
2023-01-19T05:13:37.357Z,7.00
2023-01-19T05:16:06.200Z,6.30
2023-01-19T05:18:37.090Z,6.72
2023-01-19T05:21:07.542Z,7.03
2023-01-19T05:23:35.534Z,6.47
2023-01-19T05:26:04.026Z,7.20
2023-01-19T05:28:33.551Z,7.05
2023-01-19T05:31:01.490Z,7.20
2023-01-19T05:33:29.323Z,6.13
2023-01-19T05:35:57.409Z,6.43
2023-01-19T05:38:35.457Z,6.00
2023-01-19T05:41:04.461Z,5.45
2023-01-19T05:43:32.323Z,6.60
2023-01-19T05:46:00.621Z,6.30
2023-01-19T05:48:28.722Z,5.93
2023-01-19T05:50:59.309Z,6.45
2023-01-19T05:53:29.216Z,5.30
2023-01-19T05:56:01.317Z,5.38
2023-01-19T05:58:29.409Z,5.63
2023-01-19T06:00:57.340Z,4.97
2023-01-19T06:03:25.367Z,5.18
2023-01-19T06:05:53.158Z,5.57
2023-01-19T06:08:20.985Z,5.05
2023-01-19T06:10:50.160Z,5.38
2023-01-19T06:13:18.194Z,4.07
2023-01-19T06:15:46.840Z,5.63
2023-01-19T06:18:15.829Z,5.78
2023-01-19T06:20:43.826Z,4.80
2023-01-19T06:23:11.705Z,5.05
2023-01-19T06:25:39.574Z,5.18
2023-01-19T06:28:08.692Z,5.30
2023-01-19T06:30:36.585Z,4.40
2023-01-19T06:33:04.517Z,4.72
2023-01-19T06:35:32.358Z,4.90
2023-01-19T06:38:00.136Z,4.35
2023-01-19T06:40:27.970Z,4.50
2023-01-19T06:42:55.815Z,2.65
2023-01-19T06:45:24.954Z,4.45
2023-01-19T06:47:52.770Z,2.85
2023-01-19T06:50:20.851Z,4.75
2023-01-19T06:52:50.978Z,3.13
2023-01-19T06:55:19.087Z,4.32
2023-01-19T06:57:47.641Z,3.80
2023-01-19T07:00:17.248Z,4.35
2023-01-19T07:02:46.588Z,4.57
2023-01-19T07:05:14.651Z,4.78
2023-01-19T07:07:43.269Z,4.97
2023-01-19T07:10:13.023Z,5.22
2023-01-19T07:12:40.911Z,5.47
2023-01-19T07:15:11.695Z,5.38
2023-01-19T07:17:39.546Z,5.03
2023-01-19T07:20:14.349Z,5.10
2023-01-19T07:22:43.496Z,5.77
2023-01-19T07:25:11.589Z,5.82
2023-01-19T07:27:40.439Z,5.72
2023-01-19T07:30:09.588Z,4.90
2023-01-19T07:32:38.259Z,5.60
2023-01-19T07:35:08.088Z,5.85
2023-01-19T07:37:36.339Z,5.68
2023-01-19T07:40:04.603Z,5.82
2023-01-19T07:42:32.419Z,5.88
2023-01-19T07:45:00.957Z,6.38
2023-01-19T07:47:28.779Z,6.95
2023-01-19T07:49:56.610Z,6.60
2023-01-19T07:52:25.756Z,7.45
2023-01-19T07:54:53.582Z,6.15
2023-01-19T07:57:22.036Z,6.32
2023-01-19T07:59:49.860Z,6.80
2023-01-19T08:02:17.751Z,7.00
2023-01-19T08:04:48.511Z,6.90
2023-01-19T08:07:16.489Z,6.03
2023-01-19T08:09:45.658Z,7.10
2023-01-19T08:12:13.449Z,6.43
2023-01-19T08:14:41.368Z,6.30
2023-01-19T08:17:13.895Z,6.22
2023-01-19T08:19:43.338Z,6.05
2023-01-19T08:22:11.123Z,7.40
2023-01-19T08:24:39.116Z,6.40
2023-01-19T08:27:09.782Z,6.40
2023-01-19T08:29:38.222Z,6.50
2023-01-19T08:32:06.986Z,6.95
2023-01-19T08:34:35.017Z,6.72
2023-01-19T08:37:02.801Z,6.97
2023-01-19T08:39:30.559Z,6.75
2023-01-19T08:41:59.645Z,6.65
2023-01-19T08:44:29.128Z,6.80
2023-01-19T08:46:56.982Z,6.88
2023-01-19T08:49:24.933Z,7.30
2023-01-19T08:51:52.732Z,7.45
2023-01-19T08:54:21.703Z,7.97
2023-01-19T08:56:49.868Z,7.35
2023-01-19T08:59:18.153Z,7.80
2023-01-19T09:01:48.113Z,8.00
2023-01-19T09:04:16.093Z,7.95
2023-01-19T09:06:43.883Z,7.97
2023-01-19T09:09:11.802Z,9.27
2023-01-19T09:11:39.561Z,9.57
2023-01-19T09:14:08.331Z,9.10
2023-01-19T09:16:36.313Z,9.52
2023-01-19T09:19:08.481Z,9.93
2023-01-19T09:21:36.488Z,9.38
2023-01-19T09:24:04.501Z,10.50
2023-01-19T09:26:33.281Z,10.48
2023-01-19T09:29:01.191Z,9.82
2023-01-19T09:31:29.206Z,9.45
2023-01-19T09:33:57.045Z,8.82
2023-01-19T09:36:26.327Z,9.65
2023-01-19T09:38:54.146Z,10.13
2023-01-19T09:41:24.985Z,11.55
2023-01-19T09:43:57.680Z,11.85
2023-01-19T09:46:31.147Z,11.32
2023-01-19T09:49:04.809Z,13.07
2023-01-19T09:51:37.460Z,11.15
2023-01-19T09:54:12.064Z,12.00
2023-01-19T09:56:40.064Z,12.65
2023-01-19T09:59:20.648Z,12.82
2023-01-19T10:02:05.578Z,10.88
2023-01-19T10:04:38.678Z,11.02
2023-01-19T10:07:17.124Z,10.15
2023-01-19T10:10:08.359Z,10.07
2023-01-19T10:12:44.660Z,9.90
2023-01-19T10:15:24.549Z,8.75
2023-01-19T10:18:03.890Z,8.32
2023-01-19T10:20:37.682Z,9.15
2023-01-19T10:23:26.300Z,8.30
2023-01-19T10:25:56.045Z,6.93
2023-01-19T10:28:26.667Z,7.63
2023-01-19T10:30:56.357Z,7.65
2023-01-19T10:33:24.490Z,11.23
2023-01-19T10:35:52.781Z,6.80
2023-01-19T10:38:22.717Z,7.63
2023-01-19T10:40:58.443Z,8.07
2023-01-19T10:43:41.552Z,8.15
2023-01-19T10:46:18.543Z,7.47
2023-01-19T10:48:50.410Z,7.35
2023-01-19T10:51:19.049Z,8.02
2023-01-19T10:53:58.778Z,7.97
2023-01-19T10:56:30.882Z,8.52
2023-01-19T10:59:01.693Z,8.27
2023-01-19T11:01:31.157Z,7.97
2023-01-19T11:04:05.455Z,7.57
2023-01-19T11:06:35.638Z,8.40
2023-01-19T11:09:18.522Z,8.40
2023-01-19T11:11:50.046Z,10.13
2023-01-19T11:14:20.938Z,8.88
2023-01-19T11:16:51.525Z,9.23
2023-01-19T11:19:27.505Z,8.57
2023-01-19T11:22:10.996Z,8.35
2023-01-19T11:24:41.046Z,8.13
2023-01-19T11:27:08.950Z,8.63
2023-01-19T11:29:38.907Z,7.68
2023-01-19T11:32:21.142Z,8.85
2023-01-19T11:34:49.569Z,8.70
2023-01-19T11:37:34.500Z,8.45
2023-01-19T11:40:08.679Z,9.40
2023-01-19T11:42:37.627Z,8.70
2023-01-19T11:45:13.577Z,9.32
2023-01-19T11:47:44.317Z,8.48
2023-01-19T11:50:22.412Z,8.90
2023-01-19T11:52:54.468Z,6.90
2023-01-19T11:55:38.970Z,7.32
2023-01-19T11:58:07.093Z,7.55
2023-01-19T12:00:38.577Z,7.43
2023-01-19T12:03:15.051Z,7.60
2023-01-19T12:05:48.731Z,6.32
2023-01-19T12:08:21.756Z,8.55
2023-01-19T12:10:54.187Z,8.85
2023-01-19T12:13:24.232Z,8.50
2023-01-19T12:15:57.749Z,8.48
2023-01-19T12:18:29.335Z,7.93
2023-01-19T12:20:58.701Z,8.93
2023-01-19T12:23:36.775Z,8.55
2023-01-19T12:26:31.846Z,8.15
2023-01-19T12:29:04.638Z,8.25
2023-01-19T12:31:32.717Z,8.35
2023-01-19T12:34:36.038Z,7.22
2023-01-19T12:37:05.726Z,8.02
2023-01-19T12:39:35.336Z,7.38
2023-01-19T12:42:14.512Z,6.85
2023-01-19T12:44:43.437Z,5.82
2023-01-19T12:47:24.439Z,6.40
2023-01-19T12:49:56.432Z,7.05
2023-01-19T12:52:34.170Z,5.60
2023-01-19T12:55:07.702Z,6.72
2023-01-19T12:57:41.711Z,6.93
2023-01-19T13:00:30.480Z,6.30
2023-01-19T13:02:59.894Z,6.25
2023-01-19T13:05:57.859Z,6.68
2023-01-19T13:08:29.756Z,6.55
2023-01-19T13:11:20.727Z,5.57
2023-01-19T13:14:28.213Z,6.07
2023-01-19T13:17:22.285Z,6.43
2023-01-19T13:19:59.401Z,6.90
2023-01-19T13:23:04.587Z,6.53
2023-01-19T13:25:36.412Z,6.20
2023-01-19T13:28:10.434Z,6.22
2023-01-19T13:30:48.342Z,5.60
2023-01-19T13:33:22.547Z,7.43
2023-01-19T13:35:53.828Z,6.65
2023-01-19T13:38:24.031Z,7.00
2023-01-19T13:40:52.885Z,6.70
2023-01-19T13:43:27.674Z,6.70
2023-01-19T13:45:56.383Z,5.80
2023-01-19T13:48:26.565Z,6.60
2023-01-19T13:50:59.624Z,6.78
2023-01-19T13:53:27.825Z,6.65
2023-01-19T13:56:20.455Z,7.13
2023-01-19T13:59:15.603Z,6.95
2023-01-19T14:04:28.931Z,6.20
2023-01-19T14:06:59.778Z,6.50
2023-01-19T14:09:27.635Z,6.15
2023-01-19T14:12:12.943Z,6.55
2023-01-19T14:14:41.076Z,6.90
2023-01-19T14:17:23.247Z,6.70
2023-01-19T14:19:53.866Z,6.60
2023-01-19T14:22:22.379Z,6.03
2023-01-19T14:24:50.208Z,7.03
2023-01-19T14:27:20.981Z,6.45
2023-01-19T14:29:50.621Z,6.47
2023-01-19T14:32:20.713Z,5.93
2023-01-19T14:34:51.121Z,6.90
2023-01-19T14:37:29.012Z,6.43
2023-01-19T14:40:04.437Z,6.43
2023-01-19T14:42:35.847Z,6.40
2023-01-19T14:45:07.359Z,6.15
2023-01-19T14:47:38.636Z,6.15
2023-01-19T14:50:20.577Z,6.32
2023-01-19T14:52:56.293Z,6.82
2023-01-19T14:55:28.892Z,6.25
2023-01-19T14:57:56.718Z,5.97
2023-01-19T15:00:25.252Z,6.35
2023-01-19T15:02:53.398Z,5.93
2023-01-19T15:05:21.500Z,6.05
2023-01-19T15:07:49.367Z,6.15
2023-01-19T15:10:21.739Z,6.72
2023-01-19T15:12:50.811Z,6.30
2023-01-19T15:15:22.655Z,6.68
2023-01-19T15:17:51.269Z,6.55
2023-01-19T15:20:20.825Z,6.70
2023-01-19T15:22:49.559Z,6.30
2023-01-19T15:25:20.696Z,5.80
2023-01-19T15:27:49.622Z,5.95
2023-01-19T15:30:20.566Z,5.90
2023-01-19T15:32:48.634Z,6.10
2023-01-19T15:35:19.150Z,6.60
2023-01-19T15:37:47.453Z,6.85
2023-01-19T15:40:16.254Z,6.35
2023-01-19T15:42:45.919Z,6.95
2023-01-19T15:45:35.870Z,6.20
2023-01-19T15:48:05.794Z,6.38
2023-01-19T15:50:34.481Z,6.25
2023-01-19T15:53:02.610Z,10.25
2023-01-19T15:55:30.398Z,7.60
2023-01-19T15:58:01.590Z,6.80
2023-01-19T16:00:32.427Z,7.45
2023-01-19T16:03:02.078Z,7.00
2023-01-19T16:05:42.516Z,6.65
2023-01-19T16:08:11.580Z,6.72
2023-01-19T16:10:39.445Z,6.82
2023-01-19T16:13:08.873Z,6.93
2023-01-19T16:15:37.404Z,6.13
2023-01-19T16:18:06.131Z,6.20
2023-01-19T16:20:34.082Z,6.18
2023-01-19T16:23:14.603Z,6.50
2023-01-19T16:25:43.098Z,6.43
2023-01-19T16:28:12.411Z,6.18
2023-01-19T16:30:40.373Z,6.07
2023-01-19T16:33:11.505Z,6.70
2023-01-19T16:35:39.541Z,7.05
2023-01-19T16:38:09.299Z,7.57
2023-01-19T16:40:37.581Z,6.75
2023-01-19T16:43:05.503Z,6.82
2023-01-19T16:45:34.752Z,7.10
2023-01-19T16:48:02.793Z,7.32
2023-01-19T16:50:30.565Z,7.20
2023-01-19T16:52:59.026Z,7.28
2023-01-19T16:55:26.943Z,7.75
2023-01-19T16:57:56.382Z,6.88
2023-01-19T17:00:24.525Z,7.97
2023-01-19T17:02:53.818Z,7.13
2023-01-19T17:05:22.242Z,7.18
2023-01-19T17:07:50.053Z,7.47
2023-01-19T17:10:18.237Z,7.10
2023-01-19T17:12:46.493Z,7.25
2023-01-19T17:15:14.517Z,7.32
2023-01-19T17:17:42.469Z,7.22
2023-01-19T17:20:13.036Z,7.45
2023-01-19T17:22:41.144Z,6.82
2023-01-19T17:25:09.702Z,7.28
2023-01-19T17:27:37.526Z,7.55
2023-01-19T17:30:06.014Z,6.72
2023-01-19T17:32:33.818Z,7.45
2023-01-19T17:35:02.146Z,7.53
2023-01-19T17:37:31.613Z,7.68
2023-01-19T17:39:59.640Z,7.35
2023-01-19T17:42:28.524Z,7.70
2023-01-19T17:44:58.751Z,7.70
2023-01-19T17:47:28.227Z,8.32
2023-01-19T17:49:56.154Z,7.03
2023-01-19T17:52:23.964Z,7.43
2023-01-19T17:54:53.247Z,7.28
2023-01-19T17:57:21.144Z,9.52
2023-01-19T17:59:48.989Z,9.70
2023-01-19T18:02:16.926Z,15.07
2023-01-19T18:04:44.990Z,11.05
2023-01-19T18:07:12.810Z,11.65
2023-01-19T18:09:40.630Z,10.60
2023-01-19T18:12:10.126Z,10.55
2023-01-19T18:14:38.683Z,10.18
2023-01-19T18:17:06.723Z,10.77
2023-01-19T18:19:34.870Z,9.85
2023-01-19T18:22:03.398Z,8.18
2023-01-19T18:24:31.295Z,9.00
2023-01-19T18:26:59.110Z,7.53
2023-01-19T18:32:27.108Z,7.25
2023-01-19T18:34:55.102Z,7.03
2023-01-19T18:37:23.001Z,7.22
2023-01-19T18:39:50.860Z,6.93
2023-01-19T18:42:19.014Z,7.60
2023-01-19T18:44:48.286Z,7.20
2023-01-19T18:47:16.168Z,8.52
2023-01-19T18:49:44.252Z,8.95
2023-01-19T18:52:12.330Z,8.60
2023-01-19T18:54:40.130Z,13.75
2023-01-19T18:57:08.038Z,13.68
2023-01-19T18:59:35.870Z,16.75
2023-01-19T19:02:06.748Z,16.38
2023-01-19T19:04:34.732Z,15.18
2023-01-19T19:07:02.534Z,16.65
2023-01-19T19:09:30.437Z,15.52
2023-01-19T19:11:58.320Z,15.82
2023-01-19T19:14:26.359Z,16.08
2023-01-19T19:16:54.216Z,16.77
2023-01-19T19:19:23.412Z,15.00
2023-01-19T19:21:52.109Z,16.05
2023-01-19T19:24:20.277Z,18.30
2023-01-19T19:26:48.164Z,19.48
2023-01-19T19:29:15.951Z,20.55
2023-01-19T19:31:43.841Z,19.33
2023-01-19T19:34:12.650Z,20.17
2023-01-19T19:36:42.067Z,20.30
2023-01-19T19:39:10.147Z,19.88
2023-01-19T19:41:38.818Z,18.42
2023-01-19T19:44:06.858Z,16.50
2023-01-19T19:46:34.751Z,16.42
2023-01-19T19:49:02.622Z,14.45
2023-01-19T19:51:30.464Z,15.23
2023-01-19T19:54:01.844Z,14.63
2023-01-19T19:56:30.973Z,14.75
2023-01-19T19:59:00.889Z,13.82
2023-01-19T20:01:33.551Z,12.20
2023-01-19T20:04:07.045Z,13.07
2023-01-19T20:06:38.590Z,9.15
2023-01-19T20:09:09.803Z,10.38
2023-01-19T20:11:38.780Z,7.50
2023-01-19T20:14:06.796Z,7.70
2023-01-19T20:16:34.696Z,7.90
2023-01-19T20:19:02.885Z,8.13
2023-01-19T20:21:32.320Z,8.18
2023-01-19T20:24:01.937Z,7.22
2023-01-19T20:26:40.158Z,7.40
2023-01-19T20:29:10.133Z,7.50
2023-01-19T20:31:56.181Z,8.20
2023-01-19T20:34:27.894Z,8.38
2023-01-19T20:36:56.814Z,9.98
2023-01-19T20:39:25.832Z,9.60
2023-01-19T20:41:55.032Z,9.45
2023-01-19T20:44:26.594Z,9.55
2023-01-19T20:46:55.729Z,8.50
2023-01-19T20:49:23.927Z,10.63
2023-01-19T20:51:52.649Z,8.88
2023-01-19T20:54:24.290Z,9.95
2023-01-19T20:56:52.235Z,10.38
2023-01-19T20:59:21.452Z,10.13
2023-01-19T21:01:49.816Z,10.77
2023-01-19T21:04:18.374Z,10.27
2023-01-19T21:06:46.303Z,11.73
2023-01-19T21:09:14.193Z,12.75
2023-01-19T21:11:42.031Z,11.82
2023-01-19T21:14:09.967Z,11.02
2023-01-19T21:16:39.188Z,12.95
2023-01-19T21:19:07.093Z,11.60
2023-01-19T21:21:34.936Z,12.20
2023-01-19T21:24:04.586Z,12.30
2023-01-19T21:26:33.341Z,11.88
2023-01-19T21:29:02.844Z,13.60
2023-01-19T21:31:31.345Z,12.55
2023-01-19T21:34:00.726Z,12.70
2023-01-19T21:36:28.516Z,16.35
2023-01-19T21:39:00.485Z,17.48
2023-01-19T21:41:30.416Z,18.30
2023-01-19T21:43:58.493Z,16.50
2023-01-19T21:46:29.018Z,16.27
2023-01-19T21:48:57.222Z,16.88
2023-01-19T21:51:26.494Z,14.43
2023-01-19T21:53:55.966Z,12.48
2023-01-19T21:56:23.926Z,10.85
2023-01-19T21:58:51.782Z,12.07
2023-01-19T22:01:20.727Z,12.05
2023-01-19T22:03:48.586Z,11.93
2023-01-19T22:06:16.767Z,12.07
2023-01-19T22:08:47.046Z,13.57
2023-01-19T22:11:17.159Z,13.13
2023-01-19T22:13:45.638Z,12.95
2023-01-19T22:16:15.989Z,12.20
2023-01-19T22:18:46.303Z,11.32
2023-01-19T22:21:16.153Z,11.88
2023-01-19T22:23:45.688Z,12.75
2023-01-19T22:26:13.651Z,11.43
2023-01-19T22:28:41.513Z,11.63
2023-01-19T22:31:12.490Z,9.23
2023-01-19T22:33:40.627Z,9.75
2023-01-19T22:36:14.984Z,9.13
2023-01-19T22:38:44.319Z,9.43
2023-01-19T22:41:15.251Z,8.45
2023-01-19T22:43:43.648Z,8.57
2023-01-19T22:46:11.943Z,8.25
2023-01-19T22:48:40.413Z,7.85
2023-01-19T22:51:08.533Z,8.52
2023-01-19T22:53:36.352Z,8.95
2023-01-19T22:56:12.154Z,9.05
2023-01-19T23:01:10.873Z,7.68
2023-01-19T23:03:39.299Z,8.20
2023-01-19T23:06:08.452Z,7.63
2023-01-19T23:08:37.063Z,7.95
2023-01-19T23:11:06.346Z,7.00
2023-01-19T23:13:34.780Z,7.13
2023-01-19T23:16:04.622Z,6.70
2023-01-19T23:18:33.343Z,6.88
2023-01-19T23:21:04.885Z,6.38
2023-01-19T23:23:33.300Z,6.65
2023-01-19T23:26:02.365Z,6.75
2023-01-19T23:28:30.240Z,6.30
2023-01-19T23:30:58.617Z,6.20
2023-01-19T23:33:28.077Z,6.53
2023-01-19T23:35:56.517Z,6.72
2023-01-19T23:38:24.413Z,6.22
2023-01-19T23:40:52.266Z,6.03
2023-01-19T23:43:20.577Z,6.28
2023-01-19T23:45:49.013Z,6.20
2023-01-19T23:48:16.906Z,6.60
2023-01-19T23:50:46.149Z,6.00
2023-01-19T23:53:14.144Z,5.95
2023-01-19T23:55:41.958Z,5.95
2023-01-19T23:58:09.810Z,6.18
